Terminal Aerodrome Forecast
Issued by NWS Amarillo, TX

Current Version | Previous Version | Text Only | Print | Product List | Glossary Off
Versions: 1 2 3 4 5 6 7 8 9 10 11 12 13 14 15 16 17 18 19 20 21

000
FTUS44 KAMA 302300
TAFDHT
TAF
KDHT 302320Z 3100/3124 04010KT 6SM BR SCT010 BKN030
     FM310600 01007KT P6SM BKN010
     FM311400 05010KT P6SM BKN080
     FM312000 06010KT P6SM BKN200=

USA.gov is the U.S. government's official web portal to all federal, state and local government web resources and services.